<?xml version="1.0" encoding="UTF-8" standalone="no" ?>
<gpx xmlns="http://www.topografix.com/GPX/1/1" xmlns:xsi="http://www.w3.org/2001/XMLSchema-instance" xsi:schemaLocation="http://www.topografix.com/GPX/1/1 http://www.topografix.com/GPX/1/1/gpx.xsd" version="1.1" creator="VisuGPX - https://www.visugpx.com">
  <metadata>
    <name>2025-02-10-46-trespoux</name>
    <desc><![CDATA[Randonnée de 11 km pour environ 160 m de dénivelé positif . Ce circuit vous emmènera au travers des sous bois dans une combe en descente régulière bien agréable, pas de grands paysage juste la communion avec la nature . le retour est à la même image en remontée douce. ]]></desc>
  </metadata>
  <trk>
    <name><![CDATA[le bournaguet-20603832]]></name>
    <trkseg>
      <trkpt lat="44.41482" lon="1.37038">
        <ele>334</ele>
        <time>2025-01-28T15:10:50Z</time>
      </trkpt>
      <trkpt lat="44.41482" lon="1.3704">
        <ele>334</ele>
        <time>2025-01-28T15:10:51Z</time>
      </trkpt>
      <trkpt lat="44.41462" lon="1.37074">
        <ele>336</ele>
        <time>2025-01-28T15:11:16Z</time>
      </trkpt>
      <trkpt lat="44.41462" lon="1.37079">
        <ele>336</ele>
        <time>2025-01-28T15:11:19Z</time>
      </trkpt>
      <trkpt lat="44.41462" lon="1.37082">
        <ele>336</ele>
        <time>2025-01-28T15:11:21Z</time>
      </trkpt>
      <trkpt lat="44.4146" lon="1.37094">
        <ele>337</ele>
        <time>2025-01-28T15:11:28Z</time>
      </trkpt>
      <trkpt lat="44.41479" lon="1.37117">
        <ele>338</ele>
        <time>2025-01-28T15:11:48Z</time>
      </trkpt>
      <trkpt lat="44.4149" lon="1.37129">
        <ele>339</ele>
        <time>2025-01-28T15:11:59Z</time>
      </trkpt>
      <trkpt lat="44.41497" lon="1.37138">
        <ele>339</ele>
        <time>2025-01-28T15:12:07Z</time>
      </trkpt>
      <trkpt lat="44.41502" lon="1.37148">
        <ele>340</ele>
        <time>2025-01-28T15:12:14Z</time>
      </trkpt>
      <trkpt lat="44.41498" lon="1.37159">
        <ele>340</ele>
        <time>2025-01-28T15:12:21Z</time>
      </trkpt>
      <trkpt lat="44.41488" lon="1.37167">
        <ele>341</ele>
        <time>2025-01-28T15:12:30Z</time>
      </trkpt>
      <trkpt lat="44.41448" lon="1.37191">
        <ele>340</ele>
        <time>2025-01-28T15:13:05Z</time>
      </trkpt>
      <trkpt lat="44.41416" lon="1.37207">
        <ele>340</ele>
        <time>2025-01-28T15:13:32Z</time>
      </trkpt>
      <trkpt lat="44.41399" lon="1.37214">
        <ele>341</ele>
        <time>2025-01-28T15:13:46Z</time>
      </trkpt>
      <trkpt lat="44.41395" lon="1.37185">
        <ele>340</ele>
        <time>2025-01-28T15:14:03Z</time>
      </trkpt>
      <trkpt lat="44.41385" lon="1.3706">
        <ele>331</ele>
        <time>2025-01-28T15:15:15Z</time>
      </trkpt>
      <trkpt lat="44.41381" lon="1.37017">
        <ele>329</ele>
        <time>2025-01-28T15:15:40Z</time>
      </trkpt>
      <trkpt lat="44.41381" lon="1.37015">
        <ele>329</ele>
        <time>2025-01-28T15:15:41Z</time>
      </trkpt>
      <trkpt lat="44.41376" lon="1.36969">
        <ele>327</ele>
        <time>2025-01-28T15:16:08Z</time>
      </trkpt>
      <trkpt lat="44.41365" lon="1.36911">
        <ele>326</ele>
        <time>2025-01-28T15:16:42Z</time>
      </trkpt>
      <trkpt lat="44.41355" lon="1.36872">
        <ele>325</ele>
        <time>2025-01-28T15:17:06Z</time>
      </trkpt>
      <trkpt lat="44.41332" lon="1.3679">
        <ele>324</ele>
        <time>2025-01-28T15:17:56Z</time>
      </trkpt>
      <trkpt lat="44.41309" lon="1.36724">
        <ele>320</ele>
        <time>2025-01-28T15:18:38Z</time>
      </trkpt>
      <trkpt lat="44.41296" lon="1.36697">
        <ele>319</ele>
        <time>2025-01-28T15:18:57Z</time>
      </trkpt>
      <trkpt lat="44.41309" lon="1.36724">
        <ele>320</ele>
        <time>2025-01-28T15:19:15Z</time>
      </trkpt>
      <trkpt lat="44.41315" lon="1.36701">
        <ele>322</ele>
        <time>2025-01-28T15:19:29Z</time>
      </trkpt>
      <trkpt lat="44.41327" lon="1.36642">
        <ele>325</ele>
        <time>2025-01-28T15:20:04Z</time>
      </trkpt>
      <trkpt lat="44.41329" lon="1.36622">
        <ele>326</ele>
        <time>2025-01-28T15:20:16Z</time>
      </trkpt>
      <trkpt lat="44.41326" lon="1.36586">
        <ele>326</ele>
        <time>2025-01-28T15:20:37Z</time>
      </trkpt>
      <trkpt lat="44.41322" lon="1.36562">
        <ele>326</ele>
        <time>2025-01-28T15:20:51Z</time>
      </trkpt>
      <trkpt lat="44.4131" lon="1.36495">
        <ele>327</ele>
        <time>2025-01-28T15:21:30Z</time>
      </trkpt>
      <trkpt lat="44.41295" lon="1.36445">
        <ele>327</ele>
        <time>2025-01-28T15:22:01Z</time>
      </trkpt>
      <trkpt lat="44.41295" lon="1.3644">
        <ele>327</ele>
        <time>2025-01-28T15:22:04Z</time>
      </trkpt>
      <trkpt lat="44.4129" lon="1.36439">
        <ele>326</ele>
        <time>2025-01-28T15:22:08Z</time>
      </trkpt>
      <trkpt lat="44.41274" lon="1.36452">
        <ele>326</ele>
        <time>2025-01-28T15:22:23Z</time>
      </trkpt>
      <trkpt lat="44.41244" lon="1.36485">
        <ele>326</ele>
        <time>2025-01-28T15:22:54Z</time>
      </trkpt>
      <trkpt lat="44.41197" lon="1.36431">
        <ele>325</ele>
        <time>2025-01-28T15:23:42Z</time>
      </trkpt>
      <trkpt lat="44.41185" lon="1.36418">
        <ele>325</ele>
        <time>2025-01-28T15:23:54Z</time>
      </trkpt>
      <trkpt lat="44.41177" lon="1.36433">
        <ele>325</ele>
        <time>2025-01-28T15:24:05Z</time>
      </trkpt>
      <trkpt lat="44.41138" lon="1.36413">
        <ele>324</ele>
        <time>2025-01-28T15:24:38Z</time>
      </trkpt>
      <trkpt lat="44.41109" lon="1.36412">
        <ele>323</ele>
        <time>2025-01-28T15:25:02Z</time>
      </trkpt>
      <trkpt lat="44.41075" lon="1.36468">
        <ele>323</ele>
        <time>2025-01-28T15:25:44Z</time>
      </trkpt>
      <trkpt lat="44.41063" lon="1.36461">
        <ele>323</ele>
        <time>2025-01-28T15:25:54Z</time>
      </trkpt>
      <trkpt lat="44.40985" lon="1.3641">
        <ele>316</ele>
        <time>2025-01-28T15:27:03Z</time>
      </trkpt>
      <trkpt lat="44.40956" lon="1.36381">
        <ele>314</ele>
        <time>2025-01-28T15:27:32Z</time>
      </trkpt>
      <trkpt lat="44.40936" lon="1.36349">
        <ele>313</ele>
        <time>2025-01-28T15:27:56Z</time>
      </trkpt>
      <trkpt lat="44.40924" lon="1.36265">
        <ele>313</ele>
        <time>2025-01-28T15:28:45Z</time>
      </trkpt>
      <trkpt lat="44.40916" lon="1.36159">
        <ele>315</ele>
        <time>2025-01-28T15:29:46Z</time>
      </trkpt>
      <trkpt lat="44.40903" lon="1.36086">
        <ele>316</ele>
        <time>2025-01-28T15:30:29Z</time>
      </trkpt>
      <trkpt lat="44.40888" lon="1.36051">
        <ele>315</ele>
        <time>2025-01-28T15:30:52Z</time>
      </trkpt>
      <trkpt lat="44.40855" lon="1.35953">
        <ele>316</ele>
        <time>2025-01-28T15:31:54Z</time>
      </trkpt>
      <trkpt lat="44.40853" lon="1.35927">
        <ele>316</ele>
        <time>2025-01-28T15:32:09Z</time>
      </trkpt>
      <trkpt lat="44.40861" lon="1.35835">
        <ele>322</ele>
        <time>2025-01-28T15:33:02Z</time>
      </trkpt>
      <trkpt lat="44.4085" lon="1.35833">
        <ele>322</ele>
        <time>2025-01-28T15:33:11Z</time>
      </trkpt>
      <trkpt lat="44.4085" lon="1.35788">
        <ele>321</ele>
        <time>2025-01-28T15:33:37Z</time>
      </trkpt>
      <trkpt lat="44.40853" lon="1.35741">
        <ele>320</ele>
        <time>2025-01-28T15:34:04Z</time>
      </trkpt>
      <trkpt lat="44.40859" lon="1.3569">
        <ele>319</ele>
        <time>2025-01-28T15:34:33Z</time>
      </trkpt>
      <trkpt lat="44.40882" lon="1.35561">
        <ele>311</ele>
        <time>2025-01-28T15:35:49Z</time>
      </trkpt>
      <trkpt lat="44.40882" lon="1.35539">
        <ele>310</ele>
        <time>2025-01-28T15:36:02Z</time>
      </trkpt>
      <trkpt lat="44.40881" lon="1.35517">
        <ele>308</ele>
        <time>2025-01-28T15:36:15Z</time>
      </trkpt>
      <trkpt lat="44.40877" lon="1.35493">
        <ele>307</ele>
        <time>2025-01-28T15:36:29Z</time>
      </trkpt>
      <trkpt lat="44.40868" lon="1.35444">
        <ele>307</ele>
        <time>2025-01-28T15:36:58Z</time>
      </trkpt>
      <trkpt lat="44.40857" lon="1.35399">
        <ele>307</ele>
        <time>2025-01-28T15:37:25Z</time>
      </trkpt>
      <trkpt lat="44.40866" lon="1.35395">
        <ele>308</ele>
        <time>2025-01-28T15:37:32Z</time>
      </trkpt>
      <trkpt lat="44.40857" lon="1.35399">
        <ele>307</ele>
        <time>2025-01-28T15:37:40Z</time>
      </trkpt>
      <trkpt lat="44.40845" lon="1.35354">
        <ele>308</ele>
        <time>2025-01-28T15:38:07Z</time>
      </trkpt>
      <trkpt lat="44.40837" lon="1.35327">
        <ele>308</ele>
        <time>2025-01-28T15:38:24Z</time>
      </trkpt>
      <trkpt lat="44.40866" lon="1.35311">
        <ele>309</ele>
        <time>2025-01-28T15:38:49Z</time>
      </trkpt>
      <trkpt lat="44.4097" lon="1.35256">
        <ele>313</ele>
        <time>2025-01-28T15:40:18Z</time>
      </trkpt>
      <trkpt lat="44.41018" lon="1.35234">
        <ele>315</ele>
        <time>2025-01-28T15:40:59Z</time>
      </trkpt>
      <trkpt lat="44.41065" lon="1.35221">
        <ele>316</ele>
        <time>2025-01-28T15:41:37Z</time>
      </trkpt>
      <trkpt lat="44.41072" lon="1.3522">
        <ele>316</ele>
        <time>2025-01-28T15:41:43Z</time>
      </trkpt>
      <trkpt lat="44.41087" lon="1.35219">
        <ele>316</ele>
        <time>2025-01-28T15:41:55Z</time>
      </trkpt>
      <trkpt lat="44.41068" lon="1.35207">
        <ele>316</ele>
        <time>2025-01-28T15:42:11Z</time>
      </trkpt>
      <trkpt lat="44.41033" lon="1.35194">
        <ele>316</ele>
        <time>2025-01-28T15:42:40Z</time>
      </trkpt>
      <trkpt lat="44.40991" lon="1.35183">
        <ele>316</ele>
        <time>2025-01-28T15:43:14Z</time>
      </trkpt>
      <trkpt lat="44.40984" lon="1.35179">
        <ele>316</ele>
        <time>2025-01-28T15:43:21Z</time>
      </trkpt>
      <trkpt lat="44.40958" lon="1.35178">
        <ele>314</ele>
        <time>2025-01-28T15:43:41Z</time>
      </trkpt>
      <trkpt lat="44.40915" lon="1.35178">
        <ele>312</ele>
        <time>2025-01-28T15:44:16Z</time>
      </trkpt>
      <trkpt lat="44.40873" lon="1.35169">
        <ele>308</ele>
        <time>2025-01-28T15:44:50Z</time>
      </trkpt>
      <trkpt lat="44.40867" lon="1.35165">
        <ele>308</ele>
        <time>2025-01-28T15:44:55Z</time>
      </trkpt>
      <trkpt lat="44.4086" lon="1.35146">
        <ele>305</ele>
        <time>2025-01-28T15:45:07Z</time>
      </trkpt>
      <trkpt lat="44.40827" lon="1.35102">
        <ele>299</ele>
        <time>2025-01-28T15:45:44Z</time>
      </trkpt>
      <trkpt lat="44.40783" lon="1.35038">
        <ele>296</ele>
        <time>2025-01-28T15:46:35Z</time>
      </trkpt>
      <trkpt lat="44.40776" lon="1.35029">
        <ele>296</ele>
        <time>2025-01-28T15:46:42Z</time>
      </trkpt>
      <trkpt lat="44.40771" lon="1.35022">
        <ele>296</ele>
        <time>2025-01-28T15:46:48Z</time>
      </trkpt>
      <trkpt lat="44.40761" lon="1.35016">
        <ele>296</ele>
        <time>2025-01-28T15:46:57Z</time>
      </trkpt>
      <trkpt lat="44.40742" lon="1.35003">
        <ele>296</ele>
        <time>2025-01-28T15:47:14Z</time>
      </trkpt>
      <trkpt lat="44.40734" lon="1.34992">
        <ele>296</ele>
        <time>2025-01-28T15:47:23Z</time>
      </trkpt>
      <trkpt lat="44.40732" lon="1.3498">
        <ele>296</ele>
        <time>2025-01-28T15:47:30Z</time>
      </trkpt>
      <trkpt lat="44.40732" lon="1.34939">
        <ele>297</ele>
        <time>2025-01-28T15:47:53Z</time>
      </trkpt>
      <trkpt lat="44.40726" lon="1.34896">
        <ele>298</ele>
        <time>2025-01-28T15:48:18Z</time>
      </trkpt>
      <trkpt lat="44.40722" lon="1.34856">
        <ele>299</ele>
        <time>2025-01-28T15:48:41Z</time>
      </trkpt>
      <trkpt lat="44.40695" lon="1.34728">
        <ele>300</ele>
        <time>2025-01-28T15:49:58Z</time>
      </trkpt>
      <trkpt lat="44.40669" lon="1.34619">
        <ele>294</ele>
        <time>2025-01-28T15:51:03Z</time>
      </trkpt>
      <trkpt lat="44.40667" lon="1.34595">
        <ele>293</ele>
        <time>2025-01-28T15:51:17Z</time>
      </trkpt>
      <trkpt lat="44.40666" lon="1.34566">
        <ele>292</ele>
        <time>2025-01-28T15:51:34Z</time>
      </trkpt>
      <trkpt lat="44.40667" lon="1.34595">
        <ele>293</ele>
        <time>2025-01-28T15:51:50Z</time>
      </trkpt>
      <trkpt lat="44.40688" lon="1.34562">
        <ele>294</ele>
        <time>2025-01-28T15:52:16Z</time>
      </trkpt>
      <trkpt lat="44.40702" lon="1.34529">
        <ele>294</ele>
        <time>2025-01-28T15:52:38Z</time>
      </trkpt>
      <trkpt lat="44.40745" lon="1.34453">
        <ele>293</ele>
        <time>2025-01-28T15:53:33Z</time>
      </trkpt>
      <trkpt lat="44.40753" lon="1.34428">
        <ele>291</ele>
        <time>2025-01-28T15:53:49Z</time>
      </trkpt>
      <trkpt lat="44.40758" lon="1.34396">
        <ele>290</ele>
        <time>2025-01-28T15:54:07Z</time>
      </trkpt>
      <trkpt lat="44.40764" lon="1.3436">
        <ele>290</ele>
        <time>2025-01-28T15:54:29Z</time>
      </trkpt>
      <trkpt lat="44.40801" lon="1.34279">
        <ele>292</ele>
        <time>2025-01-28T15:55:24Z</time>
      </trkpt>
      <trkpt lat="44.40837" lon="1.34213">
        <ele>289</ele>
        <time>2025-01-28T15:56:11Z</time>
      </trkpt>
      <trkpt lat="44.40874" lon="1.34154">
        <ele>290</ele>
        <time>2025-01-28T15:56:56Z</time>
      </trkpt>
      <trkpt lat="44.40913" lon="1.34106">
        <ele>284</ele>
        <time>2025-01-28T15:57:38Z</time>
      </trkpt>
      <trkpt lat="44.4097" lon="1.34056">
        <ele>281</ele>
        <time>2025-01-28T15:58:31Z</time>
      </trkpt>
      <trkpt lat="44.4099" lon="1.34037">
        <ele>278</ele>
        <time>2025-01-28T15:58:51Z</time>
      </trkpt>
      <trkpt lat="44.41092" lon="1.33932">
        <ele>270</ele>
        <time>2025-01-28T16:00:32Z</time>
      </trkpt>
      <trkpt lat="44.4111" lon="1.33926">
        <ele>269</ele>
        <time>2025-01-28T16:00:47Z</time>
      </trkpt>
      <trkpt lat="44.41185" lon="1.33911">
        <ele>263</ele>
        <time>2025-01-28T16:01:48Z</time>
      </trkpt>
      <trkpt lat="44.41192" lon="1.33909">
        <ele>263</ele>
        <time>2025-01-28T16:01:53Z</time>
      </trkpt>
      <trkpt lat="44.41257" lon="1.33879">
        <ele>261</ele>
        <time>2025-01-28T16:02:48Z</time>
      </trkpt>
      <trkpt lat="44.41312" lon="1.33832">
        <ele>254</ele>
        <time>2025-01-28T16:03:40Z</time>
      </trkpt>
      <trkpt lat="44.41332" lon="1.3382">
        <ele>253</ele>
        <time>2025-01-28T16:03:57Z</time>
      </trkpt>
      <trkpt lat="44.41363" lon="1.33819">
        <ele>252</ele>
        <time>2025-01-28T16:04:22Z</time>
      </trkpt>
      <trkpt lat="44.41424" lon="1.33835">
        <ele>247</ele>
        <time>2025-01-28T16:05:12Z</time>
      </trkpt>
      <trkpt lat="44.4148" lon="1.3384">
        <ele>247</ele>
        <time>2025-01-28T16:05:57Z</time>
      </trkpt>
      <trkpt lat="44.4152" lon="1.33835">
        <ele>244</ele>
        <time>2025-01-28T16:06:29Z</time>
      </trkpt>
      <trkpt lat="44.41567" lon="1.33833">
        <ele>242</ele>
        <time>2025-01-28T16:07:06Z</time>
      </trkpt>
      <trkpt lat="44.41665" lon="1.33847">
        <ele>240</ele>
        <time>2025-01-28T16:08:25Z</time>
      </trkpt>
      <trkpt lat="44.41695" lon="1.3384">
        <ele>238</ele>
        <time>2025-01-28T16:08:50Z</time>
      </trkpt>
      <trkpt lat="44.41951" lon="1.3372">
        <ele>223</ele>
        <time>2025-01-28T16:12:26Z</time>
      </trkpt>
      <trkpt lat="44.41964" lon="1.33714">
        <ele>221</ele>
        <time>2025-01-28T16:12:37Z</time>
      </trkpt>
      <trkpt lat="44.42" lon="1.33711">
        <ele>217</ele>
        <time>2025-01-28T16:13:06Z</time>
      </trkpt>
      <trkpt lat="44.42008" lon="1.33704">
        <ele>217</ele>
        <time>2025-01-28T16:13:13Z</time>
      </trkpt>
      <trkpt lat="44.42025" lon="1.33659">
        <ele>220</ele>
        <time>2025-01-28T16:13:42Z</time>
      </trkpt>
      <trkpt lat="44.42035" lon="1.33676">
        <ele>221</ele>
        <time>2025-01-28T16:13:55Z</time>
      </trkpt>
      <trkpt lat="44.42064" lon="1.33705">
        <ele>220</ele>
        <time>2025-01-28T16:14:23Z</time>
      </trkpt>
      <trkpt lat="44.42079" lon="1.33724">
        <ele>218</ele>
        <time>2025-01-28T16:14:40Z</time>
      </trkpt>
      <trkpt lat="44.4209" lon="1.33747">
        <ele>216</ele>
        <time>2025-01-28T16:14:55Z</time>
      </trkpt>
      <trkpt lat="44.42101" lon="1.33778">
        <ele>217</ele>
        <time>2025-01-28T16:15:15Z</time>
      </trkpt>
      <trkpt lat="44.42118" lon="1.33812">
        <ele>216</ele>
        <time>2025-01-28T16:15:39Z</time>
      </trkpt>
      <trkpt lat="44.42133" lon="1.33829">
        <ele>215</ele>
        <time>2025-01-28T16:15:54Z</time>
      </trkpt>
      <trkpt lat="44.42162" lon="1.33851">
        <ele>214</ele>
        <time>2025-01-28T16:16:21Z</time>
      </trkpt>
      <trkpt lat="44.42181" lon="1.33862">
        <ele>213</ele>
        <time>2025-01-28T16:16:37Z</time>
      </trkpt>
      <trkpt lat="44.42208" lon="1.33879">
        <ele>213</ele>
        <time>2025-01-28T16:17:01Z</time>
      </trkpt>
      <trkpt lat="44.42232" lon="1.33899">
        <ele>210</ele>
        <time>2025-01-28T16:17:23Z</time>
      </trkpt>
      <trkpt lat="44.42241" lon="1.33908">
        <ele>209</ele>
        <time>2025-01-28T16:17:32Z</time>
      </trkpt>
      <trkpt lat="44.42245" lon="1.33907">
        <ele>209</ele>
        <time>2025-01-28T16:17:35Z</time>
      </trkpt>
      <trkpt lat="44.42248" lon="1.33907">
        <ele>208</ele>
        <time>2025-01-28T16:17:38Z</time>
      </trkpt>
      <trkpt lat="44.42252" lon="1.33899">
        <ele>210</ele>
        <time>2025-01-28T16:17:43Z</time>
      </trkpt>
      <trkpt lat="44.42256" lon="1.33885">
        <ele>213</ele>
        <time>2025-01-28T16:17:52Z</time>
      </trkpt>
      <trkpt lat="44.4226" lon="1.33893">
        <ele>213</ele>
        <time>2025-01-28T16:17:58Z</time>
      </trkpt>
      <trkpt lat="44.42261" lon="1.33914">
        <ele>210</ele>
        <time>2025-01-28T16:18:10Z</time>
      </trkpt>
      <trkpt lat="44.42265" lon="1.33936">
        <ele>211</ele>
        <time>2025-01-28T16:18:23Z</time>
      </trkpt>
      <trkpt lat="44.42276" lon="1.33954">
        <ele>212</ele>
        <time>2025-01-28T16:18:36Z</time>
      </trkpt>
      <trkpt lat="44.42313" lon="1.34004">
        <ele>210</ele>
        <time>2025-01-28T16:19:17Z</time>
      </trkpt>
      <trkpt lat="44.42415" lon="1.34099">
        <ele>204</ele>
        <time>2025-01-28T16:20:55Z</time>
      </trkpt>
      <trkpt lat="44.42489" lon="1.34135">
        <ele>204</ele>
        <time>2025-01-28T16:21:58Z</time>
      </trkpt>
      <trkpt lat="44.42514" lon="1.34141">
        <ele>203</ele>
        <time>2025-01-28T16:22:18Z</time>
      </trkpt>
      <trkpt lat="44.42523" lon="1.34142">
        <ele>202</ele>
        <time>2025-01-28T16:22:26Z</time>
      </trkpt>
      <trkpt lat="44.42637" lon="1.34142">
        <ele>198</ele>
        <time>2025-01-28T16:23:57Z</time>
      </trkpt>
      <trkpt lat="44.4266" lon="1.34144">
        <ele>197</ele>
        <time>2025-01-28T16:24:15Z</time>
      </trkpt>
      <trkpt lat="44.42693" lon="1.34156">
        <ele>198</ele>
        <time>2025-01-28T16:24:43Z</time>
      </trkpt>
      <trkpt lat="44.42749" lon="1.34187">
        <ele>198</ele>
        <time>2025-01-28T16:25:31Z</time>
      </trkpt>
      <trkpt lat="44.42785" lon="1.34217">
        <ele>201</ele>
        <time>2025-01-28T16:26:04Z</time>
      </trkpt>
      <trkpt lat="44.42858" lon="1.34305">
        <ele>196</ele>
        <time>2025-01-28T16:27:22Z</time>
      </trkpt>
      <trkpt lat="44.4285" lon="1.34316">
        <ele>194</ele>
        <time>2025-01-28T16:27:31Z</time>
      </trkpt>
      <trkpt lat="44.42836" lon="1.34335">
        <ele>192</ele>
        <time>2025-01-28T16:27:46Z</time>
      </trkpt>
      <trkpt lat="44.42838" lon="1.34354">
        <ele>195</ele>
        <time>2025-01-28T16:27:57Z</time>
      </trkpt>
      <trkpt lat="44.42846" lon="1.34375">
        <ele>197</ele>
        <time>2025-01-28T16:28:11Z</time>
      </trkpt>
      <trkpt lat="44.42868" lon="1.34395">
        <ele>197</ele>
        <time>2025-01-28T16:28:32Z</time>
      </trkpt>
      <trkpt lat="44.42891" lon="1.34421">
        <ele>196</ele>
        <time>2025-01-28T16:28:55Z</time>
      </trkpt>
      <trkpt lat="44.4293" lon="1.3446">
        <ele>197</ele>
        <time>2025-01-28T16:29:34Z</time>
      </trkpt>
      <trkpt lat="44.42952" lon="1.345">
        <ele>198</ele>
        <time>2025-01-28T16:30:03Z</time>
      </trkpt>
      <trkpt lat="44.42978" lon="1.34531">
        <ele>196</ele>
        <time>2025-01-28T16:30:30Z</time>
      </trkpt>
      <trkpt lat="44.43" lon="1.34574">
        <ele>193</ele>
        <time>2025-01-28T16:31:00Z</time>
      </trkpt>
      <trkpt lat="44.43031" lon="1.3464">
        <ele>198</ele>
        <time>2025-01-28T16:31:45Z</time>
      </trkpt>
      <trkpt lat="44.43055" lon="1.34697">
        <ele>195</ele>
        <time>2025-01-28T16:32:23Z</time>
      </trkpt>
      <trkpt lat="44.43076" lon="1.34723">
        <ele>190</ele>
        <time>2025-01-28T16:32:46Z</time>
      </trkpt>
      <trkpt lat="44.43096" lon="1.3479">
        <ele>190</ele>
        <time>2025-01-28T16:33:27Z</time>
      </trkpt>
      <trkpt lat="44.43117" lon="1.3483">
        <ele>188</ele>
        <time>2025-01-28T16:33:56Z</time>
      </trkpt>
      <trkpt lat="44.43145" lon="1.3486">
        <ele>187</ele>
        <time>2025-01-28T16:34:24Z</time>
      </trkpt>
      <trkpt lat="44.43154" lon="1.34892">
        <ele>187</ele>
        <time>2025-01-28T16:34:44Z</time>
      </trkpt>
      <trkpt lat="44.43185" lon="1.34964">
        <ele>186</ele>
        <time>2025-01-28T16:35:32Z</time>
      </trkpt>
      <trkpt lat="44.43212" lon="1.34998">
        <ele>182</ele>
        <time>2025-01-28T16:36:01Z</time>
      </trkpt>
      <trkpt lat="44.43244" lon="1.35021">
        <ele>177</ele>
        <time>2025-01-28T16:36:29Z</time>
      </trkpt>
      <trkpt lat="44.43261" lon="1.35031">
        <ele>176</ele>
        <time>2025-01-28T16:36:44Z</time>
      </trkpt>
      <trkpt lat="44.43283" lon="1.35044">
        <ele>176</ele>
        <time>2025-01-28T16:37:03Z</time>
      </trkpt>
      <trkpt lat="44.43272" lon="1.35074">
        <ele>178</ele>
        <time>2025-01-28T16:37:23Z</time>
      </trkpt>
      <trkpt lat="44.43243" lon="1.35089">
        <ele>179</ele>
        <time>2025-01-28T16:37:47Z</time>
      </trkpt>
      <trkpt lat="44.43231" lon="1.35093">
        <ele>181</ele>
        <time>2025-01-28T16:37:57Z</time>
      </trkpt>
      <trkpt lat="44.43216" lon="1.35094">
        <ele>182</ele>
        <time>2025-01-28T16:38:09Z</time>
      </trkpt>
      <trkpt lat="44.43201" lon="1.35097">
        <ele>183</ele>
        <time>2025-01-28T16:38:21Z</time>
      </trkpt>
      <trkpt lat="44.43195" lon="1.35109">
        <ele>185</ele>
        <time>2025-01-28T16:38:30Z</time>
      </trkpt>
      <trkpt lat="44.43188" lon="1.35116">
        <ele>186</ele>
        <time>2025-01-28T16:38:37Z</time>
      </trkpt>
      <trkpt lat="44.43178" lon="1.35115">
        <ele>186</ele>
        <time>2025-01-28T16:38:45Z</time>
      </trkpt>
      <trkpt lat="44.4316" lon="1.35116">
        <ele>188</ele>
        <time>2025-01-28T16:38:59Z</time>
      </trkpt>
      <trkpt lat="44.43134" lon="1.35127">
        <ele>190</ele>
        <time>2025-01-28T16:39:21Z</time>
      </trkpt>
      <trkpt lat="44.43105" lon="1.35147">
        <ele>191</ele>
        <time>2025-01-28T16:39:47Z</time>
      </trkpt>
      <trkpt lat="44.43069" lon="1.35187">
        <ele>195</ele>
        <time>2025-01-28T16:40:24Z</time>
      </trkpt>
      <trkpt lat="44.43036" lon="1.35216">
        <ele>198</ele>
        <time>2025-01-28T16:40:55Z</time>
      </trkpt>
      <trkpt lat="44.42948" lon="1.35321">
        <ele>200</ele>
        <time>2025-01-28T16:42:27Z</time>
      </trkpt>
      <trkpt lat="44.42922" lon="1.35346">
        <ele>198</ele>
        <time>2025-01-28T16:42:53Z</time>
      </trkpt>
      <trkpt lat="44.42895" lon="1.3536">
        <ele>200</ele>
        <time>2025-01-28T16:43:16Z</time>
      </trkpt>
      <trkpt lat="44.4287" lon="1.35363">
        <ele>201</ele>
        <time>2025-01-28T16:43:36Z</time>
      </trkpt>
      <trkpt lat="44.42844" lon="1.35349">
        <ele>200</ele>
        <time>2025-01-28T16:43:58Z</time>
      </trkpt>
      <trkpt lat="44.42759" lon="1.35266">
        <ele>207</ele>
        <time>2025-01-28T16:45:21Z</time>
      </trkpt>
      <trkpt lat="44.42734" lon="1.35248">
        <ele>207</ele>
        <time>2025-01-28T16:45:43Z</time>
      </trkpt>
      <trkpt lat="44.42711" lon="1.35243">
        <ele>210</ele>
        <time>2025-01-28T16:46:02Z</time>
      </trkpt>
      <trkpt lat="44.42641" lon="1.35256">
        <ele>213</ele>
        <time>2025-01-28T16:46:59Z</time>
      </trkpt>
      <trkpt lat="44.42611" lon="1.35266">
        <ele>216</ele>
        <time>2025-01-28T16:47:23Z</time>
      </trkpt>
      <trkpt lat="44.42592" lon="1.35276">
        <ele>217</ele>
        <time>2025-01-28T16:47:40Z</time>
      </trkpt>
      <trkpt lat="44.42542" lon="1.35275">
        <ele>220</ele>
        <time>2025-01-28T16:48:20Z</time>
      </trkpt>
      <trkpt lat="44.42515" lon="1.35283">
        <ele>221</ele>
        <time>2025-01-28T16:48:42Z</time>
      </trkpt>
      <trkpt lat="44.42488" lon="1.35294">
        <ele>222</ele>
        <time>2025-01-28T16:49:04Z</time>
      </trkpt>
      <trkpt lat="44.42413" lon="1.3535">
        <ele>223</ele>
        <time>2025-01-28T16:50:12Z</time>
      </trkpt>
      <trkpt lat="44.42311" lon="1.35431">
        <ele>226</ele>
        <time>2025-01-28T16:51:46Z</time>
      </trkpt>
      <trkpt lat="44.42291" lon="1.35449">
        <ele>227</ele>
        <time>2025-01-28T16:52:05Z</time>
      </trkpt>
      <trkpt lat="44.42282" lon="1.35469">
        <ele>226</ele>
        <time>2025-01-28T16:52:19Z</time>
      </trkpt>
      <trkpt lat="44.42281" lon="1.35474">
        <ele>226</ele>
        <time>2025-01-28T16:52:22Z</time>
      </trkpt>
      <trkpt lat="44.4228" lon="1.35485">
        <ele>225</ele>
        <time>2025-01-28T16:52:28Z</time>
      </trkpt>
      <trkpt lat="44.42261" lon="1.35471">
        <ele>226</ele>
        <time>2025-01-28T16:52:45Z</time>
      </trkpt>
      <trkpt lat="44.4224" lon="1.35466">
        <ele>227</ele>
        <time>2025-01-28T16:53:02Z</time>
      </trkpt>
      <trkpt lat="44.42217" lon="1.35457">
        <ele>229</ele>
        <time>2025-01-28T16:53:21Z</time>
      </trkpt>
      <trkpt lat="44.42196" lon="1.35454">
        <ele>230</ele>
        <time>2025-01-28T16:53:38Z</time>
      </trkpt>
      <trkpt lat="44.42171" lon="1.35455">
        <ele>231</ele>
        <time>2025-01-28T16:53:58Z</time>
      </trkpt>
      <trkpt lat="44.42154" lon="1.35458">
        <ele>231</ele>
        <time>2025-01-28T16:54:12Z</time>
      </trkpt>
      <trkpt lat="44.42136" lon="1.35458">
        <ele>232</ele>
        <time>2025-01-28T16:54:26Z</time>
      </trkpt>
      <trkpt lat="44.42118" lon="1.35456">
        <ele>232</ele>
        <time>2025-01-28T16:54:41Z</time>
      </trkpt>
      <trkpt lat="44.42101" lon="1.35454">
        <ele>233</ele>
        <time>2025-01-28T16:54:55Z</time>
      </trkpt>
      <trkpt lat="44.42088" lon="1.35444">
        <ele>232</ele>
        <time>2025-01-28T16:55:06Z</time>
      </trkpt>
      <trkpt lat="44.42064" lon="1.35429">
        <ele>232</ele>
        <time>2025-01-28T16:55:28Z</time>
      </trkpt>
      <trkpt lat="44.42043" lon="1.35422">
        <ele>232</ele>
        <time>2025-01-28T16:55:45Z</time>
      </trkpt>
      <trkpt lat="44.42019" lon="1.35421">
        <ele>234</ele>
        <time>2025-01-28T16:56:04Z</time>
      </trkpt>
      <trkpt lat="44.42" lon="1.35423">
        <ele>235</ele>
        <time>2025-01-28T16:56:19Z</time>
      </trkpt>
      <trkpt lat="44.41976" lon="1.35429">
        <ele>237</ele>
        <time>2025-01-28T16:56:39Z</time>
      </trkpt>
      <trkpt lat="44.41945" lon="1.35441">
        <ele>240</ele>
        <time>2025-01-28T16:57:05Z</time>
      </trkpt>
      <trkpt lat="44.41926" lon="1.3545">
        <ele>241</ele>
        <time>2025-01-28T16:57:21Z</time>
      </trkpt>
      <trkpt lat="44.41897" lon="1.35466">
        <ele>242</ele>
        <time>2025-01-28T16:57:46Z</time>
      </trkpt>
      <trkpt lat="44.41871" lon="1.35483">
        <ele>241</ele>
        <time>2025-01-28T16:58:09Z</time>
      </trkpt>
      <trkpt lat="44.41838" lon="1.35518">
        <ele>240</ele>
        <time>2025-01-28T16:58:42Z</time>
      </trkpt>
      <trkpt lat="44.4178" lon="1.35595">
        <ele>245</ele>
        <time>2025-01-28T16:59:46Z</time>
      </trkpt>
      <trkpt lat="44.41758" lon="1.35619">
        <ele>245</ele>
        <time>2025-01-28T17:00:08Z</time>
      </trkpt>
      <trkpt lat="44.41738" lon="1.35634">
        <ele>245</ele>
        <time>2025-01-28T17:00:26Z</time>
      </trkpt>
      <trkpt lat="44.41714" lon="1.35642">
        <ele>246</ele>
        <time>2025-01-28T17:00:46Z</time>
      </trkpt>
      <trkpt lat="44.41692" lon="1.35652">
        <ele>246</ele>
        <time>2025-01-28T17:01:04Z</time>
      </trkpt>
      <trkpt lat="44.4168" lon="1.35663">
        <ele>245</ele>
        <time>2025-01-28T17:01:16Z</time>
      </trkpt>
      <trkpt lat="44.41669" lon="1.35683">
        <ele>245</ele>
        <time>2025-01-28T17:01:30Z</time>
      </trkpt>
      <trkpt lat="44.4166" lon="1.35693">
        <ele>246</ele>
        <time>2025-01-28T17:01:40Z</time>
      </trkpt>
      <trkpt lat="44.41647" lon="1.35698">
        <ele>248</ele>
        <time>2025-01-28T17:01:50Z</time>
      </trkpt>
      <trkpt lat="44.4159" lon="1.35713">
        <ele>253</ele>
        <time>2025-01-28T17:02:37Z</time>
      </trkpt>
      <trkpt lat="44.41541" lon="1.3573">
        <ele>257</ele>
        <time>2025-01-28T17:03:17Z</time>
      </trkpt>
      <trkpt lat="44.41489" lon="1.35755">
        <ele>258</ele>
        <time>2025-01-28T17:04:01Z</time>
      </trkpt>
      <trkpt lat="44.41464" lon="1.35773">
        <ele>262</ele>
        <time>2025-01-28T17:04:24Z</time>
      </trkpt>
      <trkpt lat="44.41446" lon="1.35796">
        <ele>265</ele>
        <time>2025-01-28T17:04:43Z</time>
      </trkpt>
      <trkpt lat="44.41423" lon="1.35813">
        <ele>265</ele>
        <time>2025-01-28T17:05:04Z</time>
      </trkpt>
      <trkpt lat="44.4137" lon="1.35843">
        <ele>265</ele>
        <time>2025-01-28T17:05:50Z</time>
      </trkpt>
      <trkpt lat="44.41351" lon="1.35851">
        <ele>266</ele>
        <time>2025-01-28T17:06:06Z</time>
      </trkpt>
      <trkpt lat="44.41332" lon="1.35844">
        <ele>264</ele>
        <time>2025-01-28T17:06:22Z</time>
      </trkpt>
      <trkpt lat="44.41351" lon="1.35851">
        <ele>266</ele>
        <time>2025-01-28T17:06:37Z</time>
      </trkpt>
      <trkpt lat="44.41344" lon="1.35854">
        <ele>266</ele>
        <time>2025-01-28T17:06:43Z</time>
      </trkpt>
      <trkpt lat="44.4133" lon="1.35869">
        <ele>267</ele>
        <time>2025-01-28T17:06:57Z</time>
      </trkpt>
      <trkpt lat="44.41288" lon="1.35928">
        <ele>273</ele>
        <time>2025-01-28T17:07:45Z</time>
      </trkpt>
      <trkpt lat="44.41258" lon="1.35968">
        <ele>276</ele>
        <time>2025-01-28T17:08:18Z</time>
      </trkpt>
      <trkpt lat="44.41224" lon="1.36003">
        <ele>279</ele>
        <time>2025-01-28T17:08:52Z</time>
      </trkpt>
      <trkpt lat="44.41189" lon="1.36028">
        <ele>284</ele>
        <time>2025-01-28T17:09:23Z</time>
      </trkpt>
      <trkpt lat="44.41176" lon="1.36046">
        <ele>284</ele>
        <time>2025-01-28T17:09:38Z</time>
      </trkpt>
      <trkpt lat="44.41165" lon="1.36066">
        <ele>284</ele>
        <time>2025-01-28T17:09:52Z</time>
      </trkpt>
      <trkpt lat="44.41153" lon="1.36111">
        <ele>288</ele>
        <time>2025-01-28T17:10:20Z</time>
      </trkpt>
      <trkpt lat="44.41144" lon="1.36132">
        <ele>291</ele>
        <time>2025-01-28T17:10:34Z</time>
      </trkpt>
      <trkpt lat="44.41129" lon="1.36153">
        <ele>292</ele>
        <time>2025-01-28T17:10:51Z</time>
      </trkpt>
      <trkpt lat="44.41123" lon="1.36164">
        <ele>292</ele>
        <time>2025-01-28T17:10:59Z</time>
      </trkpt>
      <trkpt lat="44.41127" lon="1.36174">
        <ele>293</ele>
        <time>2025-01-28T17:11:05Z</time>
      </trkpt>
      <trkpt lat="44.41135" lon="1.36176">
        <ele>294</ele>
        <time>2025-01-28T17:11:12Z</time>
      </trkpt>
      <trkpt lat="44.41146" lon="1.36169">
        <ele>293</ele>
        <time>2025-01-28T17:11:21Z</time>
      </trkpt>
      <trkpt lat="44.41157" lon="1.36169">
        <ele>293</ele>
        <time>2025-01-28T17:11:30Z</time>
      </trkpt>
      <trkpt lat="44.41169" lon="1.36172">
        <ele>294</ele>
        <time>2025-01-28T17:11:40Z</time>
      </trkpt>
      <trkpt lat="44.41191" lon="1.36169">
        <ele>299</ele>
        <time>2025-01-28T17:11:58Z</time>
      </trkpt>
      <trkpt lat="44.41198" lon="1.36161">
        <ele>299</ele>
        <time>2025-01-28T17:12:05Z</time>
      </trkpt>
      <trkpt lat="44.41204" lon="1.36152">
        <ele>300</ele>
        <time>2025-01-28T17:12:12Z</time>
      </trkpt>
      <trkpt lat="44.41208" lon="1.36137">
        <ele>298</ele>
        <time>2025-01-28T17:12:21Z</time>
      </trkpt>
      <trkpt lat="44.41213" lon="1.36121">
        <ele>297</ele>
        <time>2025-01-28T17:12:31Z</time>
      </trkpt>
      <trkpt lat="44.41221" lon="1.36109">
        <ele>297</ele>
        <time>2025-01-28T17:12:41Z</time>
      </trkpt>
      <trkpt lat="44.41233" lon="1.36103">
        <ele>298</ele>
        <time>2025-01-28T17:12:51Z</time>
      </trkpt>
      <trkpt lat="44.41252" lon="1.36102">
        <ele>301</ele>
        <time>2025-01-28T17:13:06Z</time>
      </trkpt>
      <trkpt lat="44.41326" lon="1.36086">
        <ele>310</ele>
        <time>2025-01-28T17:14:06Z</time>
      </trkpt>
      <trkpt lat="44.4135" lon="1.36068">
        <ele>309</ele>
        <time>2025-01-28T17:14:28Z</time>
      </trkpt>
      <trkpt lat="44.41392" lon="1.36115">
        <ele>314</ele>
        <time>2025-01-28T17:15:11Z</time>
      </trkpt>
      <trkpt lat="44.41374" lon="1.36127">
        <ele>315</ele>
        <time>2025-01-28T17:15:27Z</time>
      </trkpt>
      <trkpt lat="44.41367" lon="1.3613">
        <ele>315</ele>
        <time>2025-01-28T17:15:33Z</time>
      </trkpt>
      <trkpt lat="44.41315" lon="1.36203">
        <ele>320</ele>
        <time>2025-01-28T17:16:32Z</time>
      </trkpt>
      <trkpt lat="44.41309" lon="1.36212">
        <ele>320</ele>
        <time>2025-01-28T17:16:39Z</time>
      </trkpt>
      <trkpt lat="44.41315" lon="1.36215">
        <ele>320</ele>
        <time>2025-01-28T17:16:44Z</time>
      </trkpt>
      <trkpt lat="44.41375" lon="1.36335">
        <ele>325</ele>
        <time>2025-01-28T17:18:07Z</time>
      </trkpt>
      <trkpt lat="44.41376" lon="1.36338">
        <ele>325</ele>
        <time>2025-01-28T17:18:09Z</time>
      </trkpt>
      <trkpt lat="44.41329" lon="1.36387">
        <ele>326</ele>
        <time>2025-01-28T17:18:56Z</time>
      </trkpt>
      <trkpt lat="44.41313" lon="1.36402">
        <ele>326</ele>
        <time>2025-01-28T17:19:12Z</time>
      </trkpt>
      <trkpt lat="44.41311" lon="1.36404">
        <ele>326</ele>
        <time>2025-01-28T17:19:14Z</time>
      </trkpt>
      <trkpt lat="44.41299" lon="1.36422">
        <ele>327</ele>
        <time>2025-01-28T17:19:28Z</time>
      </trkpt>
      <trkpt lat="44.41295" lon="1.36433">
        <ele>327</ele>
        <time>2025-01-28T17:19:35Z</time>
      </trkpt>
      <trkpt lat="44.41295" lon="1.3644">
        <ele>327</ele>
        <time>2025-01-28T17:19:39Z</time>
      </trkpt>
      <trkpt lat="44.41295" lon="1.36445">
        <ele>327</ele>
        <time>2025-01-28T17:19:42Z</time>
      </trkpt>
      <trkpt lat="44.4131" lon="1.36495">
        <ele>327</ele>
        <time>2025-01-28T17:20:13Z</time>
      </trkpt>
      <trkpt lat="44.41322" lon="1.36562">
        <ele>326</ele>
        <time>2025-01-28T17:20:52Z</time>
      </trkpt>
      <trkpt lat="44.41326" lon="1.36586">
        <ele>326</ele>
        <time>2025-01-28T17:21:06Z</time>
      </trkpt>
      <trkpt lat="44.41329" lon="1.36622">
        <ele>326</ele>
        <time>2025-01-28T17:21:27Z</time>
      </trkpt>
      <trkpt lat="44.41327" lon="1.36642">
        <ele>325</ele>
        <time>2025-01-28T17:21:39Z</time>
      </trkpt>
      <trkpt lat="44.41315" lon="1.36701">
        <ele>322</ele>
        <time>2025-01-28T17:22:14Z</time>
      </trkpt>
      <trkpt lat="44.41309" lon="1.36724">
        <ele>320</ele>
        <time>2025-01-28T17:22:28Z</time>
      </trkpt>
      <trkpt lat="44.41332" lon="1.3679">
        <ele>324</ele>
        <time>2025-01-28T17:23:10Z</time>
      </trkpt>
      <trkpt lat="44.41355" lon="1.36872">
        <ele>325</ele>
        <time>2025-01-28T17:24:00Z</time>
      </trkpt>
      <trkpt lat="44.41365" lon="1.36911">
        <ele>326</ele>
        <time>2025-01-28T17:24:24Z</time>
      </trkpt>
      <trkpt lat="44.41369" lon="1.36933">
        <ele>326</ele>
        <time>2025-01-28T17:24:37Z</time>
      </trkpt>
      <trkpt lat="44.41389" lon="1.37131">
        <ele>336</ele>
        <time>2025-01-28T17:26:31Z</time>
      </trkpt>
    </trkseg>
  </trk>
</gpx>